Main page
METAR-TAF:

METAR-TAF

Airports :

Morón Air Base

Morón de la Frontera, Spain

latitude: 37-09N, longitude: 005-37W, elevation: 87 m

Current weather observation

The report was made 20 minutes ago, at 21:00 UTC
Wind 6 kt from the East
Temperature 7°C
Humidity 76%
Pressure 1023 hPa
Visibility 10 km or more
no clouds below 1500 m and no cumulonimbus

METAR: LEMO 212100Z 10006KT CAVOK 07/03 Q1023 NOSIG

Time: 22:20 (21:20 UTC)

Forecast

The report was made 1 hour and 20 minutes ago, at 20:00 UTC
Forecast valid from 21 at 21 UTC to 22 at 21 UTC
Wind 6 kt from the East/Northeast
Visibility 10 km or more
no clouds below 1500 m and no cumulonimbus
Probability 30% :
Temporary
from 22 at 00 UTC to 22 at 09 UTC
Visibility: 4000 m
mist
Becoming
from 22 at 11 UTC to 22 at 13 UTC
Wind 10 kt from the East/Southeast
Becoming
from 22 at 19 UTC to 22 at 21 UTC
Wind 5 kt from the Northeast

TAF: LEMO 212000Z 2121/2221 06006KT CAVOK TX18/2215Z TN02/2207Z PROB30 TEMPO 2200/2209 4000 BR BECMG 2211/2213 12010KT BECMG 2219/2221 05005KT

Weather observations and forecasts of more than 4000 airports (METAR and TAF reports).

The available stations are represented by yellow and red dots on the map.

Hover mouse over dot to see the name of the station.

Then click to see weather observations and forecasts.

To change the map : click on the green buttons with a black cross to zoom in, on the green button with a dash to zoom out, or on the green arrows for adjacent maps.


METAR-TAF: